sensor_id;sensor_type;location;lat;lon;timestamp;P1;durP1;ratioP1;P2;durP2;ratioP2
75914;SDS011;64593;51.050;13.780;2023-02-15T07:00:51;22.60;;;9.32;;
75914;SDS011;64593;51.050;13.780;2023-02-15T07:05:59;22.48;;;8.50;;
75914;SDS011;64593;51.050;13.780;2023-02-15T07:11:05;19.48;;;9.95;;
75914;SDS011;64593;51.050;13.780;2023-02-15T07:16:26;26.83;;;11.88;;
75914;SDS011;64593;51.050;13.780;2023-02-15T07:21:28;13.55;;;6.78;;
75914;SDS011;64593;51.050;13.780;2023-02-15T07:26:32;23.88;;;12.38;;
75914;SDS011;64593;51.050;13.780;2023-02-15T07:31:35;16.98;;;7.15;;
75914;SDS011;64593;51.050;13.780;2023-02-15T07:36:39;18.02;;;9.60;;
75914;SDS011;64593;51.050;13.780;2023-02-15T07:41:41;11.80;;;5.63;;
75914;SDS011;64593;51.050;13.780;2023-02-15T07:46:46;17.95;;;10.18;;
75914;SDS011;64593;51.050;13.780;2023-02-15T07:51:47;13.23;;;7.35;;
75914;SDS011;64593;51.050;13.780;2023-02-15T07:56:49;23.20;;;11.80;;
75914;SDS011;64593;51.050;13.780;2023-02-15T08:01:51;16.17;;;9.40;;
75914;SDS011;64593;51.050;13.780;2023-02-15T08:06:57;15.95;;;7.30;;
75914;SDS011;64593;51.050;13.780;2023-02-15T08:11:59;18.25;;;10.60;;
75914;SDS011;64593;51.050;13.780;2023-02-15T08:17:05;19.95;;;11.32;;
75914;SDS011;64593;51.050;13.780;2023-02-15T08:22:10;18.80;;;7.50;;
75914;SDS011;64593;51.050;13.780;2023-02-15T08:27:14;21.02;;;10.38;;
75914;SDS011;64593;51.050;13.780;2023-02-15T08:32:18;21.02;;;11.57;;
75914;SDS011;64593;51.050;13.780;2023-02-15T08:37:22;11.30;;;5.93;;
75914;SDS011;64593;51.050;13.780;2023-02-15T08:42:29;17.17;;;9.95;;
75914;SDS011;64593;51.050;13.780;2023-02-15T08:47:31;13.32;;;5.43;;
75914;SDS011;64593;51.050;13.780;2023-02-15T08:52:33;18.60;;;9.38;;
75914;SDS011;64593;51.050;13.780;2023-02-15T08:57:35;18.17;;;10.18;;
75914;SDS011;64593;51.050;13.780;2023-02-15T09:02:41;23.33;;;11.55;;
75914;SDS011;64593;51.050;13.780;2023-02-15T09:07:45;13.02;;;6.65;;
75914;SDS011;64593;51.050;13.780;2023-02-15T09:12:51;18.42;;;10.63;;
75914;SDS011;64593;51.050;13.780;2023-02-15T09:17:53;18.73;;;9.02;;
75914;SDS011;64593;51.050;13.780;2023-02-15T09:22:58;20.20;;;12.32;;
75914;SDS011;64593;51.050;13.780;2023-02-15T09:28:00;19.35;;;10.05;;
75914;SDS011;64593;51.050;13.780;2023-02-15T09:33:02;18.60;;;10.55;;
75914;SDS011;64593;51.050;13.780;2023-02-15T09:38:03;15.93;;;8.60;;
75914;SDS011;64593;51.050;13.780;2023-02-15T09:43:12;18.30;;;10.73;;
75914;SDS011;64593;51.050;13.780;2023-02-15T10:09:38;20.50;;;9.32;;
75914;SDS011;64593;51.050;13.780;2023-02-15T10:31:22;17.85;;;8.50;;
75914;SDS011;64593;51.050;13.780;2023-02-15T10:36:40;28.42;;;16.70;;
75914;SDS011;64593;51.050;13.780;2023-02-15T11:09:44;19.17;;;8.82;;
75914;SDS011;64593;51.050;13.780;2023-02-15T11:20:02;23.83;;;13.48;;
75914;SDS011;64593;51.050;13.780;2023-02-15T11:25:33;22.63;;;12.88;;
75914;SDS011;64593;51.050;13.780;2023-02-15T11:30:43;25.20;;;15.55;;
75914;SDS011;64593;51.050;13.780;2023-02-15T11:35:50;21.02;;;12.27;;
75914;SDS011;64593;51.050;13.780;2023-02-15T11:41:03;17.73;;;9.88;;
75914;SDS011;64593;51.050;13.780;2023-02-15T11:46:12;21.30;;;13.18;;
75914;SDS011;64593;51.050;13.780;2023-02-15T11:51:15;21.75;;;12.68;;
75914;SDS011;64593;51.050;13.780;2023-02-15T11:56:20;23.67;;;14.00;;
75914;SDS011;64593;51.050;13.780;2023-02-15T15:23:38;37.50;;;17.98;;
75914;SDS011;64593;51.050;13.780;2023-02-15T15:50:16;22.95;;;9.77;;
75914;SDS011;64593;51.050;13.780;2023-02-15T15:55:22;24.55;;;12.70;;
75914;SDS011;64593;51.050;13.780;2023-02-15T16:05:35;39.58;;;19.67;;
75914;SDS011;64593;51.050;13.780;2023-02-15T16:10:38;45.95;;;23.30;;
75914;SDS011;64593;51.050;13.780;2023-02-15T16:15:43;44.78;;;23.27;;
75914;SDS011;64593;51.050;13.780;2023-02-15T16:20:50;47.17;;;22.92;;
75914;SDS011;64593;51.050;13.780;2023-02-15T16:31:32;51.05;;;29.83;;
75914;SDS011;64593;51.050;13.780;2023-02-15T16:36:35;50.47;;;25.58;;
75914;SDS011;64593;51.050;13.780;2023-02-15T16:41:40;40.10;;;19.35;;
75914;SDS011;64593;51.050;13.780;2023-02-15T16:46:49;48.88;;;25.25;;
75914;SDS011;64593;51.050;13.780;2023-02-15T16:52:00;29.90;;;10.38;;
75914;SDS011;64593;51.050;13.780;2023-02-15T16:57:14;46.13;;;20.92;;
75914;SDS011;64593;51.050;13.780;2023-02-15T17:02:25;52.00;;;28.13;;
75914;SDS011;64593;51.050;13.780;2023-02-15T17:08:05;53.03;;;26.95;;
75914;SDS011;64593;51.050;13.780;2023-02-15T17:13:33;40.88;;;18.33;;
75914;SDS011;64593;51.050;13.780;2023-02-15T17:23:43;31.77;;;15.07;;
75914;SDS011;64593;51.050;13.780;2023-02-15T17:28:47;56.28;;;31.42;;
75914;SDS011;64593;51.050;13.780;2023-02-15T17:33:58;32.13;;;13.38;;
75914;SDS011;64593;51.050;13.780;2023-02-15T17:39:04;56.88;;;26.63;;
75914;SDS011;64593;51.050;13.780;2023-02-15T17:44:25;49.08;;;20.27;;
75914;SDS011;64593;51.050;13.780;2023-02-15T17:49:33;39.22;;;16.17;;
75914;SDS011;64593;51.050;13.780;2023-02-15T17:54:35;54.25;;;23.73;;
75914;SDS011;64593;51.050;13.780;2023-02-15T17:59:59;37.08;;;16.83;;
75914;SDS011;64593;51.050;13.780;2023-02-15T18:05:20;52.55;;;22.67;;
75914;SDS011;64593;51.050;13.780;2023-02-15T18:11:10;38.65;;;18.77;;
75914;SDS011;64593;51.050;13.780;2023-02-15T18:16:37;29.13;;;11.77;;
75914;SDS011;64593;51.050;13.780;2023-02-15T18:22:11;42.10;;;19.40;;
75914;SDS011;64593;51.050;13.780;2023-02-15T18:27:39;39.40;;;20.35;;
75914;SDS011;64593;51.050;13.780;2023-02-15T18:32:43;44.28;;;19.67;;
75914;SDS011;64593;51.050;13.780;2023-02-15T18:37:47;35.92;;;14.50;;
75914;SDS011;64593;51.050;13.780;2023-02-15T18:42:49;56.67;;;25.48;;
75914;SDS011;64593;51.050;13.780;2023-02-15T18:48:19;49.13;;;20.88;;
75914;SDS011;64593;51.050;13.780;2023-02-15T18:53:21;33.88;;;14.05;;
75914;SDS011;64593;51.050;13.780;2023-02-15T18:58:23;47.40;;;18.85;;
75914;SDS011;64593;51.050;13.780;2023-02-15T19:03:28;53.78;;;22.42;;
75914;SDS011;64593;51.050;13.780;2023-02-15T19:08:30;61.22;;;28.27;;
75914;SDS011;64593;51.050;13.780;2023-02-15T19:13:32;60.58;;;31.33;;
75914;SDS011;64593;51.050;13.780;2023-02-15T19:18:36;67.40;;;32.42;;
75914;SDS011;64593;51.050;13.780;2023-02-15T19:24:06;43.20;;;19.23;;
75914;SDS011;64593;51.050;13.780;2023-02-15T19:29:35;61.45;;;30.42;;
75914;SDS011;64593;51.050;13.780;2023-02-15T19:34:41;46.05;;;19.23;;
75914;SDS011;64593;51.050;13.780;2023-02-15T19:40:15;48.17;;;20.20;;
75914;SDS011;64593;51.050;13.780;2023-02-15T19:45:45;53.55;;;21.20;;
75914;SDS011;64593;51.050;13.780;2023-02-15T19:50:47;54.20;;;25.67;;
75914;SDS011;64593;51.050;13.780;2023-02-15T19:55:49;54.15;;;24.35;;
75914;SDS011;64593;51.050;13.780;2023-02-15T20:00:56;53.17;;;23.50;;
75914;SDS011;64593;51.050;13.780;2023-02-15T20:05:58;68.32;;;32.22;;
75914;SDS011;64593;51.050;13.780;2023-02-15T20:11:00;50.78;;;21.25;;
75914;SDS011;64593;51.050;13.780;2023-02-15T20:16:03;70.70;;;35.30;;
75914;SDS011;64593;51.050;13.780;2023-02-15T20:21:08;69.03;;;31.15;;
75914;SDS011;64593;51.050;13.780;2023-02-15T20:26:15;57.50;;;27.13;;
75914;SDS011;64593;51.050;13.780;2023-02-15T20:31:44;41.10;;;18.08;;
75914;SDS011;64593;51.050;13.780;2023-02-15T20:37:00;52.08;;;22.77;;
75914;SDS011;64593;51.050;13.780;2023-02-15T20:42:02;58.67;;;27.40;;
75914;SDS011;64593;51.050;13.780;2023-02-15T20:47:30;65.18;;;28.77;;
75914;SDS011;64593;51.050;13.780;2023-02-15T20:52:37;39.75;;;16.75;;
75914;SDS011;64593;51.050;13.780;2023-02-15T20:57:39;60.92;;;30.48;;
75914;SDS011;64593;51.050;13.780;2023-02-15T21:02:48;55.22;;;24.90;;
75914;SDS011;64593;51.050;13.780;2023-02-15T21:08:19;65.45;;;34.35;;
75914;SDS011;64593;51.050;13.780;2023-02-15T21:13:49;39.72;;;16.10;;
75914;SDS011;64593;51.050;13.780;2023-02-15T21:18:52;56.47;;;25.85;;
75914;SDS011;64593;51.050;13.780;2023-02-15T21:24:36;30.02;;;13.23;;
75914;SDS011;64593;51.050;13.780;2023-02-15T21:30:14;45.10;;;21.60;;
75914;SDS011;64593;51.050;13.780;2023-02-15T21:35:42;51.85;;;23.70;;
75914;SDS011;64593;51.050;13.780;2023-02-15T21:40:46;48.97;;;23.02;;
75914;SDS011;64593;51.050;13.780;2023-02-15T21:45:57;45.33;;;22.42;;
75914;SDS011;64593;51.050;13.780;2023-02-15T21:51:54;54.95;;;26.95;;
75914;SDS011;64593;51.050;13.780;2023-02-15T21:57:16;57.22;;;22.27;;
75914;SDS011;64593;51.050;13.780;2023-02-15T22:02:30;45.67;;;23.23;;
75914;SDS011;64593;51.050;13.780;2023-02-15T22:07:32;23.60;;;10.15;;
75914;SDS011;64593;51.050;13.780;2023-02-15T22:12:34;59.20;;;29.65;;
75914;SDS011;64593;51.050;13.780;2023-02-15T22:17:36;42.30;;;19.95;;
75914;SDS011;64593;51.050;13.780;2023-02-15T22:23:03;46.25;;;21.92;;
75914;SDS011;64593;51.050;13.780;2023-02-15T22:28:14;49.83;;;20.85;;
75914;SDS011;64593;51.050;13.780;2023-02-15T22:33:21;50.83;;;22.67;;
75914;SDS011;64593;51.050;13.780;2023-02-15T22:38:31;29.95;;;14.93;;
75914;SDS011;64593;51.050;13.780;2023-02-15T22:43:37;41.83;;;17.88;;
75914;SDS011;64593;51.050;13.780;2023-02-15T22:48:46;38.53;;;15.93;;
75914;SDS011;64593;51.050;13.780;2023-02-15T22:54:14;25.60;;;11.65;;
75914;SDS011;64593;51.050;13.780;2023-02-15T22:59:20;51.83;;;22.80;;
